To NAV CANADA Home Page Login to a new session Search on AWWS site Feedback and Comments Disclaimer Vers la page française équivalente Tips FAQ What's new on the site To the Forecasts and Observations / NOTAM section To "File a Flight Plan" website Publications and other links Update of the User's profile FIC Telephone Numbers My Weather Data Folder Route Weather Data Regional Weather Data Local Weather Data To the Forecasts and Observations / NOTAM section
Request Generated 08/01/2015 at 13:49:30 UTC . Weather information available at that time is displayed.

METAR/TAF

LONDON/ON    

METAR CYXU 011300Z 26004KT 15SM FEW016 FEW100 20/16 A2991 RMK CU1AC1
CU TR AC TR SLP123 DENSITY ALT 1700FT=
METAR CYXU 011200Z 29003KT 15SM FEW030 18/15 A2990 RMK CU1 CU TR DSNT
SE SLP120 DENSITY ALT 1400FT=
METAR CYXU 011100Z 26003KT 15SM FEW100 16/14 A2988 RMK AC1 AC TR
SLP117 DENSITY ALT 1200FT=

TAF CYXU 011138Z 0112/0212 26005KT P6SM FEW100
FM011500 28010KT P6SM SCT050 TEMPO 0117/0118 BKN050
FM011800 26010G20KT P6SM BKN050 TEMPO 0118/0201 P6SM -SHRA PROB30
0120/0124 VRB15G25KT 2SM TSRA BR BKN020 OVC040CB
FM020100 25007KT P6SM SCT050
FM020300 20005KT P6SM SKC
BECMG 0208/0210 24005KT
RMK NXT FCST BY 011800Z=
Your time UTC time
Weather data provided by Environment Canada and NAV CANADA